West Palm Beach, FL

4:00 AM EST on November 26, 2014 (GMT -0500)
Palm Beach, FL | Change Station
CLOSE
Current Station
Personal Weather Station
Location: Palm Beach, FL
Elevation: 8 ft
Nearby Weather Stations

Elev 8 ft 26.71 °N, 80.04 °W | Updated 4 seconds ago

Mostly Cloudy
Mostly Cloudy
78.6 °F
Feels Like 82 °F
N
2.9
Wind Variable Wind from SSE
Gusts 5.0 mph

Today
High -- | Low -- °F
--% Chance of Precip.
Yesterday
High -- | Low -- °F
Precip. -- in
6:47 AM 5:27 PM
Waxing Crescent, 18% visible
Pressure 29.90 in
Visibility 10.0 miles
Clouds Few 3000 ft
Scattered Clouds 8000 ft
Mostly Cloudy 25000 ft
Heat Index 82 °F
Dew Point 76 °F
Humidity 92%
Rainfall 0.00 in
Snow Depth Not available.
UV 0 out of 12
Pollen 2.40 out of 12
Air Quality Not available.
Flu Activity Not available.
METAR KPBI 260853Z 18009KT 10SM FEW030 SCT080 BKN250 26/24 A2990 RMK AO2 SLP123 FRQ LTGICCC DSNT NE-E NW CB DSNT NE-E NW T02610239 58006

More Conditions Fewer Conditions

Pressure 29.90 in
Visibility 10.0 miles
Clouds Few 3000 ft
Scattered Clouds 8000 ft
Mostly Cloudy 25000 ft
Heat Index 82 °F
Dew Point 76 °F
Humidity 92%
Rainfall 0.00 in
Snow Depth Not available.
UV 0 out of 12
Pollen 2.40 out of 12
Air Quality Not available.
Flu Activity Not available.
METAR KPBI 260853Z 18009KT 10SM FEW030 SCT080 BKN250 26/24 A2990 RMK AO2 SLP123 FRQ LTGICCC DSNT NE-E NW CB DSNT NE-E NW T02610239 58006

More Conditions Fewer Conditions

Nowcast | as of 3:47 am EST on November 26, 2014

A few thunderstorms will affect the Gulf waters as well as the Atlantic waters beyond 20 nm of the coast. The main impacts will be a few lightning strikes and gusty winds to around 25 knots. Over land...showers will affect the Gulf Coast and Lake Okeechobee region. A thunderstorm is possible as well. For the East Coast Metro...mostly dry weather will continue with rain chances increasing towards sunrise.

×

10-Day Weather Forecast

Almanac

Astronomy

Nov. 26, 2014 Rise Set
Actual Time
Civil Twilight
Nautical Twilight
Astronomical Twilight
Moon
Length of Visible Light
Length of Day
Tomorrow will be .
, % of the Moon is Illuminated

Today's Extremes

State Highs State Lows

Community

WunderPhotos

Upload Photos

1,773,694 photos uploaded!

WunderBlogs® & News

Nearby

Air Quality

  Air Quality AQ Index Pollutant
Not available.

Snow Depth

Station Depth Elevation

Earthquake Activity

City Distance Mag. Time & Date
Minimum magnitude displayed is 2.5.

Coastal Water Temperatures

Place Temperature

Nearby Weather Stations